Yetter, Iowa
Current Conditions -  °F | °C
As of 4:15 AM on Sunday 23 Nov 2014 (Local Time) from KCIN Reporting Station
Clear Clear  
Wind Chill: 52°   Ceiling: Unl
Heat Index: 52°   Visibility: 10mi
Dew Point: 50°   Wind: 23mph
Humidity: 94%   Direction: 190°S
Pressure: 29.47"   Gusts: 29mph
Location:  42.2974°N, 94.9163°W
Report Text: KCIN 231015Z AUTO 19020G25KT 10SM CLR 11/10 A2947 RMK AO2
Loading
Personal Weather Stations






























Interactive Weather Map New forecast layout! Learn more

10-Day Weather Forecast

Advertisements
Track Severe Weather on mobile